KOLE/OLE METAR and TAF weather

Enter ICAO airport designator
Station Type Date Time Source
KOLE METAR 2020/09/18 06:55 UTC NOAA

KOLE 180655Z AUTO 03004KT 10SM SCT009 SCT044 08/08 A3007 RMK AO2


Station Type Date Time Source
KOLE Decoded METAR 2020/09/18 06:55 UTC NOAA

Olean Municipal, NY, United States (KOLE) 42-14N 078-22W
Sep 18, 2020 - 02:55 AM EDT / 2020.09.18 0655 UTC
Wind: from the NNE (030 degrees) at 5 MPH (4 KT):0
Visibility: 10 mile(s):0
Sky conditions: partly cloudy
Temperature: 46 F (8 C)
Dew Point: 46 F (8 C)
Relative Humidity: 100%
Pressure (altimeter): 30.07 in. Hg (1018 hPa)
ob: KOLE 180655Z AUTO 03004KT 10SM SCT009 SCT044 08/08 A3007 RMK AO2
cycle: 7

Station Type Date Time Source
KOLE TAF UTC NOAA

Error!

Example: see airport list